Time;durP1;ratioP1;P1;durP2;ratioP2;P2;SDS_P1;SDS_P2;PMS_P1;PMS_P2;Temp;Humidity;BMP_temperature;BMP_pressure;BME280_temperature;BME280_humidity;BME280_pressure;Samples;Min_cycle;Max_cycle;Signal;HPM_P1;HPM_P2
2022/04/17 00:00:27;;;;;;;;;;;;;;;;;;4972202;28;20053;-81
2022/04/17 00:02:54;;;;;;;15.70;12.43;;;;;;;;;;4970550;28;20005;-83
2022/04/17 00:05:21;;;;;;;17.40;12.18;;;;;;;;;;4969748;28;20470;-81
2022/04/17 00:07:47;;;;;;;17.83;12.93;;;;;;;;;;4971936;28;20534;-83
2022/04/17 00:10:14;;;;;;;18.77;11.80;;;;;;;;;;4977175;28;20072;-84
2022/04/17 00:12:41;;;;;;;17.92;13.20;;;;;;;;;;4975954;28;20042;-83
2022/04/17 00:15:11;;;;;;;16.25;12.50;;;;;;;;;;4975574;28;20074;-82
2022/04/17 00:17:42;;;;;;;18.70;13.07;;;;;;;;;;4970520;28;20531;-83
2022/04/17 00:20:13;;;;;;;17.33;12.82;;;;;;;;;;4970390;28;20062;-84
2022/04/17 00:22:40;;;;;;;16.23;12.60;;;;;;;;;;4970701;28;20507;-83
2022/04/17 00:25:07;;;;;;;18.50;12.65;;;;;;;;;;4971995;28;20086;-83
2022/04/17 00:27:34;;;;;;;17.50;12.60;;;;;;;;;;4971073;28;20583;-83
2022/04/17 00:30:03;;;;;;;21.50;14.02;;;;;;;;;;4971085;28;20090;-83
2022/04/17 00:32:31;;;;;;;18.05;13.38;;;;;;;;;;4970613;28;20043;-83
2022/04/17 00:34:58;;;;;;;20.52;14.00;;;;;;;;;;4970526;28;20471;-84
2022/04/17 00:37:25;;;;;;;18.00;13.30;;;;;;;;;;4971898;28;20461;-83
2022/04/17 00:39:53;;;;;;;19.75;14.52;;;;;;;;;;4970188;28;20084;-84
2022/04/17 00:42:20;;;;;;;16.83;13.43;;;;;;;;;;4969271;28;20078;-82
2022/04/17 00:44:47;;;;;;;23.50;14.75;;;;;;;;;;4970312;28;20145;-80
2022/04/17 00:47:15;;;;;;;20.45;14.23;;;;;;;;;;4970202;28;20047;-81
2022/04/17 00:49:45;;;;;;;;;;;;;;;;;;4970672;28;20078;-80
2022/04/17 00:52:13;;;;;;;17.33;13.88;;;;;;;;;;4971933;28;19968;-82
2022/04/17 00:54:44;;;;;;;21.38;15.88;;;;;;;;;;4970334;28;20070;-81
2022/04/17 00:57:12;;;;;;;18.50;13.90;;;;;;;;;;4969623;28;20137;-82
2022/04/17 00:59:44;;;;;;;18.73;14.30;;;;;;;;;;4968525;28;20515;-81
2022/04/17 01:02:14;;;;;;;19.77;14.40;;;;;;;;;;4970476;28;20047;-83
2022/04/17 01:04:41;;;;;;;18.95;14.63;;;;;;;;;;4969474;28;20435;-82
2022/04/17 01:07:10;;;;;;;22.67;13.95;;;;;;;;;;4970116;28;20062;-82
2022/04/17 01:09:37;;;;;;;17.83;14.50;;;;;;;;;;4970924;28;20053;-82
2022/04/17 01:12:08;;;;;;;19.27;14.55;;;;;;;;;;4969927;28;20082;-81
2022/04/17 01:14:39;;;;;;;21.08;14.73;;;;;;;;;;4970416;28;20165;-81
2022/04/17 01:17:07;;;;;;;22.80;14.82;;;;;;;;;;4960716;28;20047;-82
2022/04/17 01:19:39;;;;;;;18.35;13.82;;;;;;;;;;4969988;28;20121;-80
2022/04/17 01:22:09;;;;;;;15.93;13.30;;;;;;;;;;4970560;28;20073;-81
2022/04/17 01:27:21;;;;;;;17.13;14.43;;;;;;;;;;4967826;28;20109;-79
2022/04/17 01:29:50;;;;;;;20.40;14.73;;;;;;;;;;4970102;28;20106;-82
2022/04/17 01:32:17;;;;;;;;;;;;;;;;;;4966591;28;20070;-82
2022/04/17 01:34:44;;;;;;;27.85;15.25;;;;;;;;;;4970550;28;19961;-82
2022/04/17 01:37:10;;;;;;;22.98;14.98;;;;;;;;;;4970929;28;20112;-83
2022/04/17 01:39:37;;;;;;;20.88;15.00;;;;;;;;;;4970644;28;20066;-83
2022/04/17 01:42:04;;;;;;;23.65;14.35;;;;;;;;;;4972505;28;20518;-81
2022/04/17 01:44:31;;;;;;;18.15;14.25;;;;;;;;;;4974921;28;20047;-81
2022/04/17 01:47:01;;;;;;;19.33;13.60;;;;;;;;;;4974112;28;20079;-80
2022/04/17 01:49:28;;;;;;;20.92;14.30;;;;;;;;;;4971191;28;20050;-80
2022/04/17 01:51:55;;;;;;;17.25;14.90;;;;;;;;;;4970761;28;20043;-82
2022/04/17 01:54:24;;;;;;;20.02;13.95;;;;;;;;;;4968665;28;20467;-83
2022/04/17 01:56:51;;;;;;;20.25;14.90;;;;;;;;;;4968620;28;20054;-82
2022/04/17 01:59:20;;;;;;;19.83;14.40;;;;;;;;;;4972392;28;20069;-81
2022/04/17 02:01:48;;;;;;;19.85;14.05;;;;;;;;;;4969268;28;20059;-79
2022/04/17 02:04:15;;;;;;;18.50;14.45;;;;;;;;;;4971277;28;20058;-80
2022/04/17 02:06:43;;;;;;;19.13;14.13;;;;;;;;;;4969758;28;20720;-81
2022/04/17 02:09:12;;;;;;;23.63;14.63;;;;;;;;;;4968352;28;20042;-81
2022/04/17 02:11:39;;;;;;;22.63;15.43;;;;;;;;;;4968318;28;20275;-81
2022/04/17 02:14:06;;;;;;;23.15;14.13;;;;;;;;;;4968726;28;20115;-82
2022/04/17 02:16:34;;;;;;;19.15;14.05;;;;;;;;;;4970707;28;20105;-83
2022/04/17 02:19:02;;;;;;;17.38;14.57;;;;;;;;;;4970357;28;20046;-82
2022/04/17 02:21:30;;;;;;;21.05;15.30;;;;;;;;;;4968995;28;20073;-82
2022/04/17 02:23:59;;;;;;;19.10;15.05;;;;;;;;;;4969280;28;20050;-82
2022/04/17 02:26:25;;;;;;;20.55;14.80;;;;;;;;;;4968770;28;20589;-83
2022/04/17 02:28:56;;;;;;;18.98;14.55;;;;;;;;;;4968654;28;20066;-83
2022/04/17 02:31:23;;;;;;;22.38;15.00;;;;;;;;;;4968788;28;20049;-83
2022/04/17 02:33:51;;;;;;;18.05;14.43;;;;;;;;;;4968341;28;20532;-83
2022/04/17 02:36:21;;;;;;;21.85;14.63;;;;;;;;;;4967347;28;20050;-84
2022/04/17 02:38:48;;;;;;;20.25;14.60;;;;;;;;;;4969621;28;20051;-84
2022/04/17 02:41:15;;;;;;;18.50;14.48;;;;;;;;;;4968216;28;20062;-82
2022/04/17 02:43:41;;;;;;;19.20;14.93;;;;;;;;;;4970678;28;20594;-83
2022/04/17 02:46:08;;;;;;;19.13;15.20;;;;;;;;;;4969969;28;20090;-83
2022/04/17 02:48:35;;;;;;;20.00;15.85;;;;;;;;;;4968638;28;20046;-83
2022/04/17 02:51:02;;;;;;;19.65;15.05;;;;;;;;;;4968011;28;20039;-83
2022/04/17 02:53:32;;;;;;;20.55;15.77;;;;;;;;;;4967373;28;20074;-82
2022/04/17 02:56:00;;;;;;;20.13;15.38;;;;;;;;;;4968190;28;20130;-83
2022/04/17 02:58:26;;;;;;;20.45;15.88;;;;;;;;;;4969940;28;20051;-83
2022/04/17 03:06:24;;;;;;;23.40;15.93;;;;;;;;;;4964769;28;20109;-82
2022/04/17 03:08:50;;;;;;;22.48;15.43;;;;;;;;;;4967774;28;20105;-82
2022/04/17 03:11:17;;;;;;;24.00;17.13;;;;;;;;;;4970640;28;20075;-82
2022/04/17 03:13:44;;;;;;;25.27;16.65;;;;;;;;;;4972320;28;20086;-83
2022/04/17 03:16:11;;;;;;;23.65;16.60;;;;;;;;;;4974063;28;20050;-82
2022/04/17 03:18:38;;;;;;;20.52;15.85;;;;;;;;;;4970839;28;20130;-82
2022/04/17 03:21:04;;;;;;;19.60;16.02;;;;;;;;;;4970295;28;20070;-81
2022/04/17 03:23:31;;;;;;;20.23;16.60;;;;;;;;;;4973369;28;20070;-82
2022/04/17 03:25:58;;;;;;;20.70;16.10;;;;;;;;;;4971365;28;20047;-82
2022/04/17 03:28:24;;;;;;;22.40;16.35;;;;;;;;;;4973326;28;20054;-83
2022/04/17 03:30:51;;;;;;;20.25;16.08;;;;;;;;;;4971917;28;20038;-81
2022/04/17 03:33:17;;;;;;;23.20;17.30;;;;;;;;;;4970764;28;20055;-83
2022/04/17 03:35:44;;;;;;;27.50;17.55;;;;;;;;;;4971063;28;20082;-83
2022/04/17 03:38:11;;;;;;;23.02;17.15;;;;;;;;;;4970775;28;20077;-82
2022/04/17 03:40:38;;;;;;;25.35;17.08;;;;;;;;;;4973542;28;20078;-82
2022/04/17 03:43:05;;;;;;;29.10;17.73;;;;;;;;;;4972852;28;20081;-81
2022/04/17 03:45:31;;;;;;;27.48;17.70;;;;;;;;;;4971343;28;20093;-83
2022/04/17 03:47:59;;;;;;;27.88;18.60;;;;;;;;;;4972763;28;20047;-82
2022/04/17 03:50:26;;;;;;;20.90;17.23;;;;;;;;;;4971192;28;20043;-82
2022/04/17 03:52:53;;;;;;;27.30;17.52;;;;;;;;;;4970876;28;20508;-83
2022/04/17 03:55:20;;;;;;;21.85;17.77;;;;;;;;;;4974097;28;20478;-83
2022/04/17 03:57:46;;;;;;;27.23;18.90;;;;;;;;;;4972054;28;20082;-83
2022/04/17 04:00:14;;;;;;;23.60;17.83;;;;;;;;;;4970573;28;20051;-83
2022/04/17 04:02:41;;;;;;;23.67;18.08;;;;;;;;;;4974035;28;20097;-82
2022/04/17 04:05:09;;;;;;;28.08;18.45;;;;;;;;;;4969822;28;20149;-83
2022/04/17 04:07:37;;;;;;;23.73;16.52;;;;;;;;;;4972085;28;20063;-83
2022/04/17 04:10:05;;;;;;;26.83;17.65;;;;;;;;;;4974296;28;20070;-82
2022/04/17 04:12:32;;;;;;;24.00;18.73;;;;;;;;;;4971023;28;20047;-82
2022/04/17 04:14:59;;;;;;;25.40;18.30;;;;;;;;;;4971761;28;20515;-82
2022/04/17 04:17:26;;;;;;;26.13;18.65;;;;;;;;;;4972256;28;20069;-81
2022/04/17 04:19:52;;;;;;;27.38;18.45;;;;;;;;;;4970732;28;20507;-82
2022/04/17 04:22:20;;;;;;;26.30;17.33;;;;;;;;;;4972987;28;20093;-83
2022/04/17 04:24:47;;;;;;;27.58;19.40;;;;;;;;;;4970734;28;20126;-83
2022/04/17 04:29:59;;;;;;;26.48;18.08;;;;;;;;;;4967302;28;20098;-82
2022/04/17 04:32:25;;;;;;;26.77;18.02;;;;;;;;;;4971718;28;20062;-82
2022/04/17 04:34:56;;;;;;;28.55;17.88;;;;;;;;;;4970115;28;20047;-82
2022/04/17 04:37:22;;;;;;;26.02;16.98;;;;;;;;;;4972125;28;20075;-82
2022/04/17 04:39:49;;;;;;;29.55;20.15;;;;;;;;;;4969255;28;20530;-82
2022/04/17 04:42:17;;;;;;;34.65;18.25;;;;;;;;;;4971795;28;20070;-82
2022/04/17 04:44:44;;;;;;;27.38;17.50;;;;;;;;;;4967611;28;20130;-82
2022/04/17 04:47:10;;;;;;;21.88;17.38;;;;;;;;;;4969546;28;20451;-82
2022/04/17 04:49:37;;;;;;;25.83;18.23;;;;;;;;;;4972239;28;20081;-83
2022/04/17 04:52:03;;;;;;;27.13;19.15;;;;;;;;;;4970741;28;20138;-82
2022/04/17 04:54:31;;;;;;;36.40;20.83;;;;;;;;;;4969756;28;20116;-83
2022/04/17 04:56:58;;;;;;;34.72;21.80;;;;;;;;;;4970122;28;20090;-82
2022/04/17 04:59:25;;;;;;;30.83;22.83;;;;;;;;;;4970913;28;20125;-83
2022/04/17 05:01:52;;;;;;;35.35;24.38;;;;;;;;;;4970613;28;20074;-81
2022/04/17 05:04:23;;;;;;;37.88;24.95;;;;;;;;;;4972601;28;20082;-82
2022/04/17 05:06:49;;;;;;;50.45;29.23;;;;;;;;;;4968858;28;20081;-82
2022/04/17 05:09:16;;;;;;;51.00;31.67;;;;;;;;;;4969649;28;20043;-82
2022/04/17 05:11:43;;;;;;;54.63;34.35;;;;;;;;;;4969346;28;20097;-83
2022/04/17 05:14:10;;;;;;;59.63;35.25;;;;;;;;;;4970656;28;20452;-82
2022/04/17 05:16:37;;;;;;;62.28;35.92;;;;;;;;;;4971686;28;20073;-82
2022/04/17 05:19:20;;;;;;;59.28;35.60;;;;;;;;;;4966100;28;20128;-80
2022/04/17 05:21:48;;;;;;;56.53;33.72;;;;;;;;;;4970650;28;20574;-81
2022/04/17 05:24:16;;;;;;;49.05;29.40;;;;;;;;;;4968179;28;20074;-82
2022/04/17 05:26:43;;;;;;;41.70;26.88;;;;;;;;;;4969475;28;20511;-82
2022/04/17 05:29:10;;;;;;;40.30;24.58;;;;;;;;;;4967717;28;20073;-82
2022/04/17 05:31:36;;;;;;;33.50;21.60;;;;;;;;;;4971329;28;20050;-82
2022/04/17 05:34:03;;;;;;;31.67;22.42;;;;;;;;;;4969775;28;20047;-81
2022/04/17 05:36:30;;;;;;;34.35;21.02;;;;;;;;;;4968840;28;20585;-83
2022/04/17 05:38:57;;;;;;;40.60;22.33;;;;;;;;;;4968159;28;20116;-83
2022/04/17 05:41:24;;;;;;;29.38;21.63;;;;;;;;;;4968909;28;20133;-82
2022/04/17 05:43:51;;;;;;;32.15;20.90;;;;;;;;;;4959789;28;20050;-82
2022/04/17 05:46:18;;;;;;;31.77;21.42;;;;;;;;;;4967650;28;20050;-82
2022/04/17 05:48:46;;;;;;;26.70;19.85;;;;;;;;;;4968927;28;20151;-82
2022/04/17 05:51:12;;;;;;;25.85;18.95;;;;;;;;;;4968668;28;20047;-82
2022/04/17 05:53:39;;;;;;;27.42;20.13;;;;;;;;;;4970437;28;20066;-82
2022/04/17 05:56:06;;;;;;;27.15;19.52;;;;;;;;;;4968879;28;20496;-82
2022/04/17 05:58:33;;;;;;;27.20;19.05;;;;;;;;;;4970589;28;20074;-81
2022/04/17 06:01:02;;;;;;;29.35;19.50;;;;;;;;;;4969191;28;20039;-82
2022/04/17 06:03:29;;;;;;;29.60;19.27;;;;;;;;;;4968164;28;20038;-83
2022/04/17 06:05:55;;;;;;;23.92;18.20;;;;;;;;;;4967830;28;20530;-82
2022/04/17 06:08:23;;;;;;;26.40;19.25;;;;;;;;;;4970299;28;20097;-82
2022/04/17 06:10:50;;;;;;;23.45;17.98;;;;;;;;;;4966428;28;20114;-83
2022/04/17 06:13:17;;;;;;;27.25;18.17;;;;;;;;;;4971011;28;20088;-83
2022/04/17 06:15:44;;;;;;;22.42;17.08;;;;;;;;;;4970138;28;20057;-83
2022/04/17 06:18:11;;;;;;;24.60;17.50;;;;;;;;;;4969587;28;20078;-83
2022/04/17 06:20:38;;;;;;;23.63;16.10;;;;;;;;;;4971069;28;20129;-82
2022/04/17 06:23:05;;;;;;;21.20;16.55;;;;;;;;;;4969854;28;20065;-83
2022/04/17 06:25:32;;;;;;;21.23;16.08;;;;;;;;;;4968455;28;20120;-84
2022/04/17 06:27:59;;;;;;;22.45;17.23;;;;;;;;;;4967682;28;20055;-82
2022/04/17 06:30:26;;;;;;;22.83;16.70;;;;;;;;;;4972307;28;20050;-84
2022/04/17 06:32:54;;;;;;;20.35;15.57;;;;;;;;;;4967536;28;20038;-83
2022/04/17 06:35:21;;;;;;;23.88;16.40;;;;;;;;;;4965995;28;20134;-83
2022/04/17 06:37:53;;;;;;;23.70;16.50;;;;;;;;;;4966623;28;20043;-84
2022/04/17 06:40:28;;;;;;;21.90;15.75;;;;;;;;;;4967164;28;20125;-83
2022/04/17 06:42:56;;;;;;;25.98;15.70;;;;;;;;;;4966174;28;20094;-83
2022/04/17 06:45:26;;;;;;;23.83;15.93;;;;;;;;;;4964446;28;20907;-83
2022/04/17 06:47:56;;;;;;;24.63;15.52;;;;;;;;;;4968492;28;20101;-83
2022/04/17 06:50:23;;;;;;;22.90;14.88;;;;;;;;;;4969819;28;20075;-85
2022/04/17 06:52:50;;;;;;;23.65;15.45;;;;;;;;;;4969925;28;20061;-83
2022/04/17 06:55:17;;;;;;;22.20;14.98;;;;;;;;;;4969163;28;20153;-84
2022/04/17 06:57:47;;;;;;;20.13;14.27;;;;;;;;;;4971999;28;20074;-84
2022/04/17 07:00:17;;;;;;;18.35;14.20;;;;;;;;;;4970252;28;20109;-84
2022/04/17 07:02:44;;;;;;;16.75;13.63;;;;;;;;;;4970177;28;20042;-85
2022/04/17 07:05:12;;;;;;;17.50;14.15;;;;;;;;;;4968795;28;20131;-86
2022/04/17 07:07:39;;;;;;;20.42;14.45;;;;;;;;;;4968615;28;20094;-83
2022/04/17 07:10:07;;;;;;;16.90;12.98;;;;;;;;;;4969794;28;20542;-82
2022/04/17 07:12:34;;;;;;;21.67;13.90;;;;;;;;;;4970467;28;20710;-84
2022/04/17 07:15:06;;;;;;;16.33;12.40;;;;;;;;;;4969187;28;20066;-83
2022/04/17 07:17:40;;;;;;;17.08;12.18;;;;;;;;;;4969952;28;20610;-84
2022/04/17 07:20:08;;;;;;;19.67;13.40;;;;;;;;;;4969465;28;20113;-84
2022/04/17 07:22:36;;;;;;;17.15;13.00;;;;;;;;;;4970402;28;20617;-84
2022/04/17 07:25:05;;;;;;;15.70;12.65;;;;;;;;;;4967878;28;20078;-84
2022/04/17 07:27:39;;;;;;;16.38;11.27;;;;;;;;;;4965997;28;20086;-85
2022/04/17 07:30:13;;;;;;;15.88;12.93;;;;;;;;;;4969152;28;20674;-84
2022/04/17 07:32:42;;;;;;;18.27;12.38;;;;;;;;;;4968643;28;20093;-84
2022/04/17 07:35:11;;;;;;;15.98;12.05;;;;;;;;;;4968031;28;20077;-84
2022/04/17 07:37:38;;;;;;;18.80;12.18;;;;;;;;;;4968052;28;20073;-85
2022/04/17 07:40:17;;;;;;;16.25;11.40;;;;;;;;;;4969976;28;20451;-85
2022/04/17 07:42:44;;;;;;;12.80;11.43;;;;;;;;;;4968307;28;20121;-84
2022/04/17 07:45:13;;;;;;;14.85;11.20;;;;;;;;;;4968411;28;20086;-85
2022/04/17 07:47:40;;;;;;;15.15;11.13;;;;;;;;;;4969446;28;20075;-84
2022/04/17 07:50:08;;;;;;;14.82;11.02;;;;;;;;;;4967736;28;20050;-84
2022/04/17 07:52:35;;;;;;;14.48;10.93;;;;;;;;;;4967784;28;20822;-84
2022/04/17 07:55:05;;;;;;;13.50;9.57;;;;;;;;;;4968254;28;20078;-83
2022/04/17 07:57:53;;;;;;;13.23;10.52;;;;;;;;;;4967325;28;20567;-83
2022/04/17 08:00:21;;;;;;;12.63;10.43;;;;;;;;;;4967690;28;20050;-82
2022/04/17 08:03:07;;;;;;;12.70;9.80;;;;;;;;;;4967156;28;20053;-84
2022/04/17 08:05:38;;;;;;;13.45;9.70;;;;;;;;;;4967599;28;20043;-84
2022/04/17 08:08:11;;;;;;;12.52;9.77;;;;;;;;;;4968014;28;20039;-83
2022/04/17 08:10:38;;;;;;;11.20;9.73;;;;;;;;;;4967904;28;20109;-83
2022/04/17 08:13:06;;;;;;;13.13;9.48;;;;;;;;;;4968209;28;20058;-83
2022/04/17 08:15:33;;;;;;;14.13;9.98;;;;;;;;;;4968131;28;20511;-85
2022/04/17 08:17:59;;;;;;;14.23;9.80;;;;;;;;;;4967698;28;20101;-84
2022/04/17 08:20:26;;;;;;;14.00;9.52;;;;;;;;;;4966437;28;20051;-84
2022/04/17 08:22:52;;;;;;;11.57;9.00;;;;;;;;;;4967222;28;20141;-84
2022/04/17 08:25:19;;;;;;;10.88;9.32;;;;;;;;;;4966926;28;20166;-84
2022/04/17 08:27:50;;;;;;;13.77;10.30;;;;;;;;;;4966950;28;20070;-84
2022/04/17 08:30:20;;;;;;;12.13;9.85;;;;;;;;;;4968160;28;20538;-83
2022/04/17 08:32:47;;;;;;;11.50;9.07;;;;;;;;;;4967535;28;20047;-85
2022/04/17 08:35:14;;;;;;;12.98;9.63;;;;;;;;;;4967078;28;20141;-85
2022/04/17 08:37:41;;;;;;;11.93;8.95;;;;;;;;;;4967433;28;20082;-81
2022/04/17 08:40:09;;;;;;;9.82;8.73;;;;;;;;;;4966749;28;20071;-83
2022/04/17 08:42:37;;;;;;;11.02;8.65;;;;;;;;;;4966256;28;20133;-81
2022/04/17 08:45:04;;;;;;;9.48;7.18;;;;;;;;;;4966461;28;20129;-84
2022/04/17 08:47:32;;;;;;;10.63;8.30;;;;;;;;;;4981710;28;20077;-80
2022/04/17 08:49:59;;;;;;;10.88;7.55;;;;;;;;;;4967560;28;20074;-83
2022/04/17 08:52:30;;;;;;;9.90;7.55;;;;;;;;;;4966267;28;20153;-82
2022/04/17 08:54:59;;;;;;;9.77;6.85;;;;;;;;;;4968069;28;20058;-81
2022/04/17 08:57:26;;;;;;;10.52;7.38;;;;;;;;;;4966378;28;20503;-83
2022/04/17 08:59:52;;;;;;;9.80;6.57;;;;;;;;;;4967467;28;20122;-82
2022/04/17 09:02:19;;;;;;;9.98;7.60;;;;;;;;;;4966299;28;20519;-81
2022/04/17 09:04:46;;;;;;;9.60;7.47;;;;;;;;;;4967204;28;20054;-83
2022/04/17 09:07:13;;;;;;;11.25;7.57;;;;;;;;;;4970089;28;20137;-81
2022/04/17 09:09:54;;;;;;;8.68;6.97;;;;;;;;;;4966422;28;20038;-80
2022/04/17 09:12:25;;;;;;;8.85;7.05;;;;;;;;;;4966923;28;20563;-80
2022/04/17 09:14:55;;;;;;;10.00;7.65;;;;;;;;;;4966934;28;20039;-79
2022/04/17 09:17:34;;;;;;;10.50;7.75;;;;;;;;;;4965378;28;20141;-80
2022/04/17 09:20:03;;;;;;;9.50;7.10;;;;;;;;;;4968629;28;20396;-81
2022/04/17 09:22:55;;;;;;;9.60;7.63;;;;;;;;;;4966576;28;20515;-82
2022/04/17 09:25:24;;;;;;;12.02;7.60;;;;;;;;;;4966042;28;20054;-82
2022/04/17 09:28:00;;;;;;;17.38;7.93;;;;;;;;;;4966700;28;20097;-82
2022/04/17 09:30:39;;;;;;;7.93;7.13;;;;;;;;;;4964145;28;20138;-83
2022/04/17 09:33:10;;;;;;;10.70;7.65;;;;;;;;;;4979219;28;20047;-82
2022/04/17 09:35:37;;;;;;;10.75;7.38;;;;;;;;;;4964139;28;20118;-82
2022/04/17 09:38:05;;;;;;;13.30;7.70;;;;;;;;;;4966569;28;20051;-82
2022/04/17 09:40:33;;;;;;;11.35;7.03;;;;;;;;;;4966602;28;20081;-81
2022/04/17 09:43:15;;;;;;;14.02;7.20;;;;;;;;;;4966635;28;20078;-81
2022/04/17 09:46:05;;;;;;;16.23;7.70;;;;;;;;;;4965962;28;20062;-82
2022/04/17 09:48:39;;;;;;;10.23;8.07;;;;;;;;;;4965480;28;20081;-81
2022/04/17 09:51:25;;;;;;;11.02;7.43;;;;;;;;;;4966033;28;20070;-81
2022/04/17 09:53:59;;;;;;;14.73;8.13;;;;;;;;;;4966150;28;20089;-81
2022/04/17 09:56:31;;;;;;;11.27;7.72;;;;;;;;;;4965512;28;20562;-81
2022/04/17 09:58:59;;;;;;;12.80;7.78;;;;;;;;;;4966285;28;20050;-82
2022/04/17 10:01:27;;;;;;;9.65;7.03;;;;;;;;;;4966235;28;20082;-83
2022/04/17 10:03:57;;;;;;;14.60;7.55;;;;;;;;;;4966327;28;20058;-82
2022/04/17 10:06:24;;;;;;;9.85;7.53;;;;;;;;;;4965647;28;20150;-81
2022/04/17 10:08:52;;;;;;;13.05;7.45;;;;;;;;;;4966682;28;20039;-81
2022/04/17 10:11:19;;;;;;;10.57;7.15;;;;;;;;;;4963585;28;20145;-82
2022/04/17 10:13:47;;;;;;;10.02;7.60;;;;;;;;;;4966276;28;20539;-82
2022/04/17 10:16:19;;;;;;;11.57;7.40;;;;;;;;;;4968899;28;20578;-81
2022/04/17 10:18:47;;;;;;;9.93;7.00;;;;;;;;;;4966829;28;20057;-80
2022/04/17 10:21:15;;;;;;;11.30;6.93;;;;;;;;;;4967856;28;20089;-83
2022/04/17 10:23:45;;;;;;;8.98;6.18;;;;;;;;;;4967787;28;20082;-81
2022/04/17 10:26:14;;;;;;;9.18;6.78;;;;;;;;;;4965912;28;20078;-81
2022/04/17 10:28:46;;;;;;;9.50;6.18;;;;;;;;;;4968546;28;20109;-81
2022/04/17 10:31:20;;;;;;;11.68;6.60;;;;;;;;;;4969501;28;20392;-81
2022/04/17 10:34:10;;;;;;;11.43;7.95;;;;;;;;;;4967727;28;20058;-81
2022/04/17 10:36:54;;;;;;;8.48;6.88;;;;;;;;;;4967067;28;20046;-81
2022/04/17 10:39:33;;;;;;;12.63;7.55;;;;;;;;;;4966434;28;20066;-81
2022/04/17 10:42:09;;;;;;;11.40;7.80;;;;;;;;;;4966784;28;20051;-79
2022/04/17 10:44:41;;;;;;;13.00;8.13;;;;;;;;;;4966936;28;20462;-81
2022/04/17 10:47:21;;;;;;;10.55;7.75;;;;;;;;;;4966401;28;20505;-81
2022/04/17 10:49:56;;;;;;;11.73;6.97;;;;;;;;;;4967637;28;20110;-81
2022/04/17 10:52:29;;;;;;;10.90;7.47;;;;;;;;;;4966176;28;20415;-81
2022/04/17 10:54:55;;;;;;;11.73;8.38;;;;;;;;;;4968641;28;20510;-81
2022/04/17 10:57:24;;;;;;;12.05;8.40;;;;;;;;;;4966292;28;20102;-82
2022/04/17 11:00:32;;;;;;;11.27;8.23;;;;;;;;;;4966611;28;20078;-81
2022/04/17 11:03:22;;;;;;;10.43;8.52;;;;;;;;;;4965585;28;20039;-83
2022/04/17 11:08:57;;;;;;;12.75;8.77;;;;;;;;;;4966367;28;20051;-81
2022/04/17 11:11:37;;;;;;;10.95;8.98;;;;;;;;;;4967196;28;20091;-81
2022/04/17 11:14:11;;;;;;;11.00;8.73;;;;;;;;;;4953545;28;20101;-80
2022/04/17 11:16:58;;;;;;;13.60;8.32;;;;;;;;;;4968607;28;20057;-81
2022/04/17 11:19:28;;;;;;;11.45;8.20;;;;;;;;;;4969202;28;20077;-80
2022/04/17 11:21:59;;;;;;;9.82;7.35;;;;;;;;;;4967195;28;20162;-81
2022/04/17 11:24:29;;;;;;;10.25;7.35;;;;;;;;;;4966048;28;20761;-81
2022/04/17 11:26:55;;;;;;;14.88;9.05;;;;;;;;;;4965890;28;20091;-82
2022/04/17 11:29:39;;;;;;;15.10;10.48;;;;;;;;;;4966266;28;20432;-81
2022/04/17 11:32:17;;;;;;;14.50;9.75;;;;;;;;;;4953643;28;20047;-80
2022/04/17 11:34:54;;;;;;;11.23;9.13;;;;;;;;;;4971508;28;20129;-81
2022/04/17 11:37:29;;;;;;;10.80;8.82;;;;;;;;;;4968973;28;20082;-81
2022/04/17 11:40:00;;;;;;;12.25;8.68;;;;;;;;;;4970646;28;20141;-82
2022/04/17 11:42:28;;;;;;;12.02;9.10;;;;;;;;;;4969358;28;20508;-82
2022/04/17 11:45:00;;;;;;;19.73;13.30;;;;;;;;;;4969610;28;20078;-82
2022/04/17 11:47:28;;;;;;;11.55;8.73;;;;;;;;;;4969729;28;20046;-81
2022/04/17 11:49:54;;;;;;;11.43;8.50;;;;;;;;;;4971407;28;20571;-82
2022/04/17 11:52:23;;;;;;;11.88;8.65;;;;;;;;;;4968666;28;20125;-81
2022/04/17 11:54:50;;;;;;;13.07;8.02;;;;;;;;;;4971047;28;20085;-82
2022/04/17 11:57:20;;;;;;;22.02;7.90;;;;;;;;;;4968747;28;20071;-82
2022/04/17 11:59:48;;;;;;;12.85;7.10;;;;;;;;;;4969984;28;20141;-82
2022/04/17 12:02:19;;;;;;;12.93;6.97;;;;;;;;;;4969247;28;20046;-81
2022/04/17 12:04:47;;;;;;;12.52;7.30;;;;;;;;;;4970616;28;20077;-82
2022/04/17 12:07:19;;;;;;;12.48;7.70;;;;;;;;;;4971539;28;20053;-82
2022/04/17 12:09:46;;;;;;;14.35;7.18;;;;;;;;;;4969430;28;20074;-82
2022/04/17 12:12:15;;;;;;;11.80;7.10;;;;;;;;;;4968791;28;20119;-82
2022/04/17 12:14:42;;;;;;;;;;;;;;;;;;4968406;28;20133;-82
2022/04/17 12:17:11;;;;;;;12.57;6.38;;;;;;;;;;4968807;28;19922;-82
2022/04/17 12:19:38;;;;;;;15.38;7.20;;;;;;;;;;4971425;28;20125;-82
2022/04/17 12:22:11;;;;;;;9.60;6.93;;;;;;;;;;4970288;28;20468;-80
2022/04/17 12:24:43;;;;;;;10.07;6.15;;;;;;;;;;4969215;28;20078;-82
2022/04/17 12:27:19;;;;;;;10.13;6.82;;;;;;;;;;4968567;28;20105;-82
2022/04/17 12:29:50;;;;;;;16.40;8.82;;;;;;;;;;4970444;28;20396;-81
2022/04/17 12:32:20;;;;;;;16.00;11.05;;;;;;;;;;4968429;28;20092;-81
2022/04/17 12:34:57;;;;;;;21.20;13.63;;;;;;;;;;4970084;28;20038;-82
2022/04/17 12:37:28;;;;;;;18.52;13.63;;;;;;;;;;4968093;28;20047;-82
2022/04/17 12:40:12;;;;;;;22.73;13.98;;;;;;;;;;4969668;28;20452;-82
2022/04/17 12:42:40;;;;;;;20.38;13.50;;;;;;;;;;4968144;28;20047;-82
2022/04/17 12:45:08;;;;;;;21.52;13.65;;;;;;;;;;4968105;28;20121;-81
2022/04/17 12:47:36;;;;;;;;;;;;;;;;;;4968716;28;20050;-82
2022/04/17 12:50:03;;;;;;;18.33;12.40;;;;;;;;;;4969051;28;19969;-82
2022/04/17 12:52:30;;;;;;;19.23;11.48;;;;;;;;;;4970843;28;20534;-81
2022/04/17 12:55:06;;;;;;;19.20;12.25;;;;;;;;;;4970048;28;20136;-82
2022/04/17 12:57:33;;;;;;;19.63;11.73;;;;;;;;;;4968378;28;20094;-81
2022/04/17 12:59:59;;;;;;;19.42;11.85;;;;;;;;;;4968756;28;20050;-81
2022/04/17 13:02:27;;;;;;;21.02;12.52;;;;;;;;;;4969923;28;20081;-82
2022/04/17 13:04:56;;;;;;;18.35;13.00;;;;;;;;;;4952596;28;20507;-81
2022/04/17 13:07:22;;;;;;;18.15;13.35;;;;;;;;;;4967428;28;20481;-81
2022/04/17 13:09:54;;;;;;;19.27;13.80;;;;;;;;;;4969937;28;20117;-81
2022/04/17 13:12:33;;;;;;;25.73;14.32;;;;;;;;;;4967965;28;20085;-81
2022/04/17 13:15:03;;;;;;;20.10;14.80;;;;;;;;;;4967905;28;20577;-82
2022/04/17 13:17:29;;;;;;;23.27;13.88;;;;;;;;;;4967932;28;20101;-81
2022/04/17 13:19:56;;;;;;;21.25;14.65;;;;;;;;;;4968608;28;20074;-82
2022/04/17 13:22:22;;;;;;;31.55;18.67;;;;;;;;;;4971107;28;20074;-82
2022/04/17 13:24:49;;;;;;;27.77;20.10;;;;;;;;;;4967907;28;20066;-82
2022/04/17 13:27:16;;;;;;;35.30;23.30;;;;;;;;;;4967785;28;20134;-83
2022/04/17 13:29:44;;;;;;;34.97;22.85;;;;;;;;;;4967624;28;20075;-82
2022/04/17 13:32:11;;;;;;;38.40;24.58;;;;;;;;;;4967690;28;20055;-82
2022/04/17 13:34:39;;;;;;;35.33;23.52;;;;;;;;;;4969952;28;20047;-82
2022/04/17 13:39:50;;;;;;;42.45;25.48;;;;;;;;;;4969732;28;20093;-81
2022/04/17 13:42:17;;;;;;;42.03;25.40;;;;;;;;;;4967340;28;20035;-81
2022/04/17 13:44:44;;;;;;;43.60;26.88;;;;;;;;;;4968146;28;20145;-82
2022/04/17 13:47:10;;;;;;;41.47;24.92;;;;;;;;;;4968251;28;20049;-81
2022/04/17 13:49:37;;;;;;;42.30;26.00;;;;;;;;;;4969846;28;20058;-82
2022/04/17 13:52:04;;;;;;;38.88;26.23;;;;;;;;;;4968303;28;20074;-82
2022/04/17 13:54:32;;;;;;;41.40;25.88;;;;;;;;;;4967306;28;20046;-82
2022/04/17 13:56:59;;;;;;;41.40;23.87;;;;;;;;;;4967469;28;20133;-81
2022/04/17 13:59:26;;;;;;;39.55;25.83;;;;;;;;;;4967288;28;20078;-82
2022/04/17 14:01:53;;;;;;;38.38;25.13;;;;;;;;;;4967929;28;20070;-81
2022/04/17 14:04:20;;;;;;;36.90;23.67;;;;;;;;;;4969865;28;20486;-81
2022/04/17 14:06:47;;;;;;;37.95;22.85;;;;;;;;;;4967195;28;20074;-81
2022/04/17 14:09:15;;;;;;;35.70;22.25;;;;;;;;;;4967282;28;20521;-82
2022/04/17 14:11:44;;;;;;;35.63;23.38;;;;;;;;;;4967534;28;20082;-81
2022/04/17 14:14:10;;;;;;;35.78;23.50;;;;;;;;;;4967081;28;20492;-81
2022/04/17 14:16:40;;;;;;;34.08;23.50;;;;;;;;;;4969172;28;20055;-81
2022/04/17 14:19:08;;;;;;;34.15;23.85;;;;;;;;;;4968144;28;20054;-80
2022/04/17 14:21:35;;;;;;;35.22;23.05;;;;;;;;;;4967210;28;20105;-81
2022/04/17 14:24:02;;;;;;;33.47;22.55;;;;;;;;;;4966191;28;20082;-81
2022/04/17 14:26:28;;;;;;;33.17;22.65;;;;;;;;;;4966379;28;20073;-81
2022/04/17 14:28:55;;;;;;;35.03;23.58;;;;;;;;;;4967542;28;20046;-82
2022/04/17 14:31:21;;;;;;;34.63;24.23;;;;;;;;;;4951378;28;20062;-81
2022/04/17 14:33:49;;;;;;;32.35;23.45;;;;;;;;;;4964459;28;20078;-82
2022/04/17 14:36:17;;;;;;;35.95;23.52;;;;;;;;;;4961994;28;20070;-82
2022/04/17 14:38:45;;;;;;;35.40;25.50;;;;;;;;;;4967323;28;20046;-81
2022/04/17 14:41:13;;;;;;;46.42;31.42;;;;;;;;;;4966701;28;20126;-80
2022/04/17 14:43:41;;;;;;;37.45;24.48;;;;;;;;;;4968616;28;20054;-83
2022/04/17 14:46:08;;;;;;;32.72;22.75;;;;;;;;;;4961636;28;20098;-77
2022/04/17 14:48:35;;;;;;;31.73;22.83;;;;;;;;;;4967146;28;20142;-77
2022/04/17 14:51:02;;;;;;;32.65;21.20;;;;;;;;;;4966608;28;20113;-78